createdAt,value
2017-11-14T00:00:44.021Z,3.40
2017-11-14T00:03:12.153Z,3.40
2017-11-14T00:05:40.270Z,3.40
2017-11-14T00:08:08.413Z,3.40
2017-11-14T00:10:36.537Z,3.30
2017-11-14T00:13:04.682Z,3.10
2017-11-14T00:15:32.835Z,2.80
2017-11-14T00:18:00.961Z,2.60
2017-11-14T00:20:29.859Z,2.30
2017-11-14T00:22:58.774Z,2.10
2017-11-14T00:25:26.924Z,2.10
2017-11-14T00:27:55.053Z,2.50
2017-11-14T00:30:23.199Z,2.80
2017-11-14T00:32:51.343Z,2.30
2017-11-14T00:35:20.251Z,2.90
2017-11-14T00:37:48.396Z,2.90
2017-11-14T00:40:17.269Z,2.80
2017-11-14T00:42:45.409Z,2.80
2017-11-14T00:45:14.395Z,3.20
2017-11-14T00:47:42.521Z,3.10
2017-11-14T00:50:11.414Z,2.80
2017-11-14T00:52:40.348Z,2.80
2017-11-14T00:55:08.476Z,2.70
2017-11-14T00:57:37.363Z,3.10
2017-11-14T01:00:06.265Z,2.80
2017-11-14T01:02:35.155Z,3.00
2017-11-14T01:05:03.305Z,3.00
2017-11-14T01:07:32.193Z,3.10
2017-11-14T01:10:01.107Z,2.90
2017-11-14T01:12:29.243Z,2.90
2017-11-14T01:14:57.355Z,1.90
2017-11-14T01:17:26.265Z,2.30
2017-11-14T01:19:54.395Z,2.30
2017-11-14T01:22:22.540Z,2.40
2017-11-14T01:24:50.666Z,2.40
2017-11-14T01:27:18.816Z,2.60
2017-11-14T01:29:47.705Z,2.00
2017-11-14T01:32:16.587Z,1.80
2017-11-14T01:34:44.717Z,1.80
2017-11-14T01:37:13.609Z,2.60
2017-11-14T01:39:41.753Z,2.60
2017-11-14T01:42:09.899Z,2.70
2017-11-14T01:44:38.197Z,2.90
2017-11-14T01:47:06.327Z,2.60
2017-11-14T01:49:34.461Z,2.40
2017-11-14T01:52:02.619Z,2.70
2017-11-14T01:54:30.767Z,2.60
2017-11-14T01:56:59.644Z,3.10
2017-11-14T01:59:27.785Z,3.00
2017-11-14T02:01:55.918Z,2.90
2017-11-14T02:04:24.814Z,3.20
2017-11-14T02:06:52.988Z,3.10
2017-11-14T02:09:21.916Z,2.30
2017-11-14T02:11:50.121Z,2.30
2017-11-14T02:14:18.254Z,2.70
2017-11-14T02:16:46.411Z,2.50
2017-11-14T02:19:14.537Z,2.00
2017-11-14T02:21:42.673Z,1.80
2017-11-14T02:24:10.806Z,2.00
2017-11-14T02:26:45.297Z,2.10
2017-11-14T02:29:13.408Z,2.10
2017-11-14T02:31:41.571Z,2.30
2017-11-14T02:34:09.713Z,2.50
2017-11-14T02:36:37.859Z,2.60
2017-11-14T02:39:09.781Z,2.90
2017-11-14T02:41:38.707Z,3.00
2017-11-14T02:44:07.602Z,2.90
2017-11-14T02:46:35.725Z,2.90
2017-11-14T02:49:03.863Z,3.20
2017-11-14T02:51:31.994Z,3.10
2017-11-14T02:54:00.260Z,2.90
2017-11-14T02:56:28.404Z,2.50
2017-11-14T02:58:57.350Z,2.50
2017-11-14T03:01:25.516Z,2.50
2017-11-14T03:03:53.640Z,2.40
2017-11-14T03:06:22.538Z,2.50
2017-11-14T03:08:51.438Z,2.80
2017-11-14T03:11:19.581Z,2.80
2017-11-14T03:13:47.722Z,2.90
2017-11-14T03:16:15.893Z,3.30
2017-11-14T03:18:44.025Z,3.10
2017-11-14T03:21:12.220Z,3.10
2017-11-14T03:23:40.438Z,3.30
2017-11-14T03:26:08.574Z,2.80
2017-11-14T03:28:36.704Z,3.00
2017-11-14T03:31:05.667Z,2.60
2017-11-14T03:33:33.801Z,2.60
2017-11-14T03:36:01.930Z,3.00
2017-11-14T03:38:30.958Z,3.50
2017-11-14T03:40:59.101Z,3.50
2017-11-14T03:43:28.001Z,3.00
2017-11-14T03:45:56.898Z,3.30
2017-11-14T03:48:25.039Z,3.30
2017-11-14T03:50:53.261Z,3.40
2017-11-14T03:53:21.421Z,3.50
2017-11-14T03:55:49.549Z,3.50
2017-11-14T03:58:17.691Z,3.60
2017-11-14T04:00:45.832Z,3.50
2017-11-14T04:03:13.949Z,3.30
2017-11-14T04:05:42.091Z,3.40
2017-11-14T04:08:10.215Z,3.30
2017-11-14T04:10:38.407Z,3.20
2017-11-14T04:13:06.548Z,3.40
2017-11-14T04:15:34.717Z,3.30
2017-11-14T04:18:02.825Z,3.40
2017-11-14T04:20:31.769Z,3.20
2017-11-14T04:22:59.924Z,3.20
2017-11-14T04:25:28.045Z,3.30
2017-11-14T04:27:56.188Z,3.10
2017-11-14T04:30:24.348Z,3.00
2017-11-14T04:32:52.477Z,3.00
2017-11-14T04:35:21.422Z,3.00
2017-11-14T04:37:49.565Z,3.00
2017-11-14T04:40:17.702Z,3.30
2017-11-14T04:42:45.820Z,3.30
2017-11-14T04:45:13.959Z,3.60
2017-11-14T04:47:42.860Z,3.40
2017-11-14T04:50:10.985Z,3.40
2017-11-14T04:52:39.129Z,3.20
2017-11-14T04:55:07.273Z,3.50
2017-11-14T04:57:35.431Z,3.70
2017-11-14T05:02:27.188Z,3.40
2017-11-14T05:04:55.341Z,3.70
2017-11-14T05:07:23.464Z,3.30
2017-11-14T05:09:51.659Z,3.20
2017-11-14T05:12:19.805Z,3.10
2017-11-14T05:14:47.910Z,3.20
2017-11-14T05:17:16.057Z,3.20
2017-11-14T05:19:44.265Z,3.50
2017-11-14T05:22:12.433Z,3.70
2017-11-14T05:24:40.548Z,3.70
2017-11-14T05:27:08.681Z,3.60
2017-11-14T05:29:36.838Z,3.80
2017-11-14T05:32:04.977Z,3.50
2017-11-14T05:34:33.112Z,3.50
2017-11-14T05:37:02.024Z,3.50
2017-11-14T05:39:30.201Z,3.50
2017-11-14T05:41:58.355Z,3.70
2017-11-14T05:44:26.522Z,3.60
2017-11-14T05:46:55.406Z,3.50
2017-11-14T05:49:24.303Z,3.70
2017-11-14T05:51:53.310Z,3.90
2017-11-14T05:54:21.474Z,3.90
2017-11-14T05:56:49.620Z,3.60
2017-11-14T05:59:17.751Z,3.90
2017-11-14T06:01:45.890Z,3.90
2017-11-14T06:04:14.037Z,4.10
2017-11-14T06:06:42.177Z,4.20
2017-11-14T06:09:10.359Z,3.90
2017-11-14T06:11:38.496Z,4.00
2017-11-14T06:14:06.662Z,3.30
2017-11-14T06:16:35.542Z,2.80
2017-11-14T06:19:04.425Z,2.90
2017-11-14T06:21:33.340Z,2.80
2017-11-14T06:24:01.469Z,2.80
2017-11-14T06:26:29.617Z,3.10
2017-11-14T06:28:57.753Z,3.10
2017-11-14T06:31:25.896Z,3.00
2017-11-14T06:33:54.783Z,2.70
2017-11-14T06:36:22.970Z,2.70
2017-11-14T06:38:51.865Z,3.30
2017-11-14T06:41:20.009Z,3.30
2017-11-14T06:43:48.348Z,3.30
2017-11-14T06:46:16.464Z,3.10
2017-11-14T06:48:44.611Z,3.10
2017-11-14T06:51:12.727Z,3.40
2017-11-14T06:53:40.909Z,3.60
2017-11-14T06:56:09.030Z,3.80
2017-11-14T06:58:37.171Z,4.00
2017-11-14T07:01:05.334Z,4.10
2017-11-14T07:03:33.470Z,4.10
2017-11-14T07:06:02.357Z,4.30
2017-11-14T07:08:31.266Z,4.30
2017-11-14T07:11:00.179Z,3.90
2017-11-14T07:13:29.066Z,4.00
2017-11-14T07:15:57.190Z,4.00
2017-11-14T07:18:25.326Z,4.20
2017-11-14T07:20:53.474Z,4.40
2017-11-14T07:23:21.598Z,4.50
2017-11-14T07:25:49.730Z,4.40
2017-11-14T07:28:17.869Z,4.60
2017-11-14T07:30:46.768Z,4.70
2017-11-14T07:33:15.673Z,4.80
2017-11-14T07:35:43.802Z,4.80
2017-11-14T07:38:11.917Z,4.90
2017-11-14T07:40:40.057Z,4.90
2017-11-14T07:43:08.977Z,5.00
2017-11-14T07:45:37.129Z,4.90
2017-11-14T07:48:06.370Z,4.90
2017-11-14T07:50:34.502Z,4.90
2017-11-14T07:53:02.634Z,4.90
2017-11-14T07:55:30.773Z,4.90
2017-11-14T07:57:58.885Z,5.00
2017-11-14T08:00:27.034Z,5.10
2017-11-14T08:02:55.148Z,5.00
2017-11-14T08:05:23.387Z,4.90
2017-11-14T08:07:51.521Z,4.90
2017-11-14T08:10:20.424Z,4.80
2017-11-14T08:12:48.561Z,4.80
2017-11-14T08:15:16.685Z,4.80
2017-11-14T08:17:44.834Z,4.80
2017-11-14T08:20:13.725Z,5.10
2017-11-14T08:22:41.873Z,5.10
2017-11-14T08:25:10.773Z,5.10
2017-11-14T08:27:39.669Z,5.20
2017-11-14T08:30:08.587Z,5.20
2017-11-14T08:32:36.725Z,5.20
2017-11-14T08:35:05.652Z,5.30
2017-11-14T08:37:33.785Z,5.30
2017-11-14T08:40:02.726Z,5.40
2017-11-14T08:42:30.845Z,5.40
2017-11-14T08:44:59.753Z,5.40
2017-11-14T08:47:28.666Z,5.50
2017-11-14T08:49:56.884Z,5.40
2017-11-14T08:52:25.003Z,5.50
2017-11-14T08:54:53.147Z,5.50
2017-11-14T08:57:22.053Z,5.60
2017-11-14T08:59:50.181Z,5.60
2017-11-14T09:02:19.834Z,5.70
2017-11-14T09:04:48.714Z,5.60
2017-11-14T09:07:17.620Z,5.70
2017-11-14T09:09:45.754Z,5.70
2017-11-14T09:12:13.899Z,5.70
2017-11-14T09:14:42.023Z,5.80
2017-11-14T09:17:11.022Z,5.80
2017-11-14T09:19:39.153Z,5.80
2017-11-14T09:22:07.286Z,5.90
2017-11-14T09:24:35.441Z,6.00
2017-11-14T09:27:03.614Z,6.10
2017-11-14T09:29:31.813Z,6.20
2017-11-14T09:31:59.957Z,6.30
2017-11-14T09:34:28.085Z,6.30
2017-11-14T09:36:56.230Z,6.30
2017-11-14T09:39:24.418Z,6.30
2017-11-14T09:41:52.562Z,6.30
2017-11-14T09:44:20.745Z,6.30
2017-11-14T09:46:48.906Z,6.20
2017-11-14T09:49:17.068Z,6.10
2017-11-14T09:51:45.196Z,6.10
2017-11-14T09:54:13.485Z,5.90
2017-11-14T09:56:41.658Z,5.90
2017-11-14T09:59:09.781Z,5.80
2017-11-14T10:01:37.960Z,6.00
2017-11-14T10:04:06.079Z,6.00
2017-11-14T10:06:34.981Z,5.90
2017-11-14T10:09:03.874Z,6.00
2017-11-14T10:11:32.797Z,6.00
2017-11-14T10:14:00.926Z,6.00
2017-11-14T10:16:29.850Z,6.20
2017-11-14T10:18:57.974Z,6.20
2017-11-14T10:21:26.117Z,6.30
2017-11-14T10:23:54.240Z,6.50
2017-11-14T10:26:23.174Z,6.70
2017-11-14T10:28:51.329Z,6.60
2017-11-14T10:31:19.446Z,6.70
2017-11-14T10:33:47.655Z,6.80
2017-11-14T10:36:16.552Z,6.40
2017-11-14T10:38:45.476Z,6.50
2017-11-14T10:41:13.603Z,6.50
2017-11-14T10:43:42.518Z,6.70
2017-11-14T10:46:10.662Z,6.70
2017-11-14T10:48:39.597Z,6.80
2017-11-14T10:51:07.779Z,6.80
2017-11-14T10:53:36.718Z,7.00
2017-11-14T10:56:05.619Z,7.00
2017-11-14T10:58:33.776Z,7.00
2017-11-14T11:01:02.700Z,7.00
2017-11-14T11:03:30.826Z,7.00
2017-11-14T11:05:59.748Z,6.90
2017-11-14T11:08:27.968Z,6.90
2017-11-14T11:10:56.098Z,6.80
2017-11-14T11:13:24.243Z,6.80
2017-11-14T11:15:53.171Z,7.00
2017-11-14T11:18:21.296Z,7.00
2017-11-14T11:20:49.443Z,7.00
2017-11-14T11:23:17.569Z,6.70
2017-11-14T11:25:45.725Z,6.90
2017-11-14T11:28:14.637Z,6.90
2017-11-14T11:30:42.770Z,6.90
2017-11-14T11:33:11.113Z,6.70
2017-11-14T11:35:39.241Z,6.80
2017-11-14T11:38:07.384Z,6.70
2017-11-14T11:40:35.499Z,6.90
2017-11-14T11:43:03.705Z,6.80
2017-11-14T11:45:31.863Z,6.80
2017-11-14T11:48:00.139Z,6.80
2017-11-14T11:50:28.289Z,6.80
2017-11-14T11:52:56.421Z,6.70
2017-11-14T11:55:24.680Z,6.60
2017-11-14T11:57:52.812Z,6.70
2017-11-14T12:00:20.959Z,6.80
2017-11-14T12:02:49.085Z,6.70
2017-11-14T12:05:17.247Z,6.80
2017-11-14T12:07:45.375Z,6.80
2017-11-14T12:10:13.605Z,6.80
2017-11-14T12:12:41.734Z,6.90
2017-11-14T12:15:10.639Z,7.00
2017-11-14T12:17:38.785Z,7.00
2017-11-14T12:20:07.677Z,7.10
2017-11-14T12:22:36.615Z,7.10
2017-11-14T12:25:04.734Z,7.10
2017-11-14T12:27:32.959Z,7.20
2017-11-14T12:30:01.136Z,7.30
2017-11-14T12:32:29.281Z,7.40
2017-11-14T12:34:58.168Z,7.60
2017-11-14T12:37:27.065Z,7.60
2017-11-14T12:39:55.961Z,7.80
2017-11-14T12:42:24.097Z,7.80
2017-11-14T12:44:52.253Z,7.60
2017-11-14T12:47:20.472Z,7.60
2017-11-14T12:49:48.888Z,7.70
2017-11-14T12:52:17.042Z,7.70
2017-11-14T12:54:45.166Z,7.80
2017-11-14T12:57:14.077Z,8.00
2017-11-14T12:59:42.243Z,8.00
2017-11-14T13:02:11.169Z,8.10
2017-11-14T13:04:39.313Z,8.00
2017-11-14T13:07:07.434Z,8.10
2017-11-14T13:09:35.575Z,8.10
2017-11-14T13:12:03.727Z,8.20
2017-11-14T13:14:33.443Z,8.20
2017-11-14T13:17:02.335Z,8.20
2017-11-14T13:19:31.249Z,8.20
2017-11-14T13:21:59.365Z,8.20
2017-11-14T13:24:27.522Z,8.30
2017-11-14T13:26:55.652Z,8.30
2017-11-14T13:29:24.561Z,8.30
2017-11-14T13:31:52.744Z,8.30
2017-11-14T13:34:20.903Z,8.40
2017-11-14T13:36:49.042Z,8.40
2017-11-14T13:39:17.957Z,8.50
2017-11-14T13:41:46.857Z,8.60
2017-11-14T13:44:14.970Z,8.60
2017-11-14T13:46:43.111Z,8.60
2017-11-14T13:49:11.254Z,8.70
2017-11-14T13:51:39.392Z,8.90
2017-11-14T13:54:07.549Z,8.90
2017-11-14T13:56:35.690Z,9.00
2017-11-14T13:59:03.826Z,9.00
2017-11-14T14:01:32.722Z,9.20
2017-11-14T14:04:01.746Z,9.30
2017-11-14T14:06:29.885Z,9.30
2017-11-14T14:08:58.826Z,9.50
2017-11-14T14:11:26.981Z,9.50
2017-11-14T14:13:55.121Z,9.50
2017-11-14T14:16:24.098Z,9.30
2017-11-14T14:18:52.537Z,9.30
2017-11-14T14:21:21.224Z,9.20
2017-11-14T14:23:49.806Z,9.10
2017-11-14T14:26:18.254Z,9.00
2017-11-14T14:28:46.866Z,8.90
2017-11-14T14:31:15.456Z,8.70
2017-11-14T14:33:45.570Z,8.60
2017-11-14T14:36:15.510Z,8.50
2017-11-14T14:38:44.928Z,8.60
2017-11-14T14:41:13.389Z,8.50
2017-11-14T14:43:42.425Z,8.50
2017-11-14T14:46:10.557Z,8.50
2017-11-14T14:48:38.719Z,8.60
2017-11-14T14:51:06.855Z,8.60
2017-11-14T14:53:35.026Z,8.60
2017-11-14T14:56:03.919Z,8.60
2017-11-14T14:58:32.083Z,8.60
2017-11-14T15:01:00.967Z,8.50
2017-11-14T15:03:29.157Z,8.50
2017-11-14T15:05:57.285Z,8.50
2017-11-14T15:08:25.425Z,8.50
2017-11-14T15:10:53.592Z,8.40
2017-11-14T15:13:21.746Z,8.40
2017-11-14T15:15:49.867Z,8.30
2017-11-14T15:18:18.011Z,7.90
2017-11-14T15:20:46.191Z,7.70
2017-11-14T15:23:17.602Z,7.60
2017-11-14T15:25:47.265Z,7.20
2017-11-14T15:28:15.421Z,7.20
2017-11-14T15:30:43.582Z,7.10
2017-11-14T15:33:11.756Z,7.00
2017-11-14T15:35:39.885Z,6.90
2017-11-14T15:38:08.798Z,6.70
2017-11-14T15:40:37.733Z,6.60
2017-11-14T15:43:05.897Z,6.60
2017-11-14T15:45:34.047Z,6.40
2017-11-14T15:48:02.240Z,6.20
2017-11-14T15:50:30.393Z,5.90
2017-11-14T15:52:58.519Z,5.70
2017-11-14T15:55:26.675Z,5.50
2017-11-14T15:57:56.326Z,5.20
2017-11-14T16:00:24.462Z,5.20
2017-11-14T16:02:52.633Z,5.20
2017-11-14T16:05:20.784Z,5.10
2017-11-14T16:07:48.906Z,5.00
2017-11-14T16:10:17.862Z,4.90
2017-11-14T16:12:46.010Z,4.90
2017-11-14T16:15:14.979Z,4.80
2017-11-14T16:17:43.120Z,4.70
2017-11-14T16:20:12.051Z,4.50
2017-11-14T16:22:40.209Z,4.50
2017-11-14T16:25:09.114Z,4.30
2017-11-14T16:27:37.287Z,4.30
2017-11-14T16:30:05.416Z,4.30
2017-11-14T16:32:33.617Z,4.30
2017-11-14T16:35:01.763Z,4.20
2017-11-14T16:37:29.919Z,4.10
2017-11-14T16:39:59.566Z,4.00
2017-11-14T16:42:27.727Z,4.00
2017-11-14T16:44:55.873Z,4.00
2017-11-14T16:47:25.538Z,3.80
2017-11-14T16:49:53.687Z,3.90
2017-11-14T16:52:21.833Z,3.90
2017-11-14T16:54:49.977Z,3.90
2017-11-14T16:57:18.143Z,3.90
2017-11-14T16:59:46.394Z,3.80
2017-11-14T17:02:14.580Z,3.80
2017-11-14T17:04:42.724Z,3.80
2017-11-14T17:07:11.608Z,3.60
2017-11-14T17:09:40.596Z,3.50
2017-11-14T17:12:08.751Z,3.50
2017-11-14T17:14:37.678Z,3.50
2017-11-14T17:17:06.617Z,3.50
2017-11-14T17:19:35.058Z,3.50
2017-11-14T17:22:04.372Z,3.30
2017-11-14T17:24:32.629Z,3.30
2017-11-14T17:27:00.906Z,3.30
2017-11-14T17:29:29.193Z,3.30
2017-11-14T17:31:57.353Z,3.30
2017-11-14T17:34:25.618Z,3.30
2017-11-14T17:36:53.794Z,3.20
2017-11-14T17:39:21.969Z,3.30
2017-11-14T17:41:50.105Z,3.10
2017-11-14T17:44:18.282Z,3.10
2017-11-14T17:46:47.174Z,3.20
2017-11-14T17:49:16.104Z,3.30
2017-11-14T17:51:44.601Z,3.30
2017-11-14T17:54:12.736Z,3.30
2017-11-14T17:56:40.897Z,3.10
2017-11-14T17:59:09.822Z,3.20
2017-11-14T18:01:38.006Z,3.20
2017-11-14T18:04:06.148Z,3.50
2017-11-14T18:06:34.311Z,3.30
2017-11-14T18:09:03.224Z,3.10
2017-11-14T18:11:31.486Z,3.10
2017-11-14T18:13:59.667Z,3.10
2017-11-14T18:16:27.797Z,2.90
2017-11-14T18:18:56.745Z,2.80
2017-11-14T18:21:24.964Z,2.80
2017-11-14T18:23:53.117Z,2.80
2017-11-14T18:26:21.250Z,2.90
2017-11-14T18:28:49.445Z,2.90
2017-11-14T18:31:17.702Z,3.00
2017-11-14T18:33:45.854Z,2.80
2017-11-14T18:36:14.809Z,2.80
2017-11-14T18:38:42.935Z,2.80
2017-11-14T18:41:11.840Z,3.50
2017-11-14T18:43:39.998Z,3.40
2017-11-14T18:46:08.934Z,3.20
2017-11-14T18:48:37.107Z,3.20
2017-11-14T18:51:05.289Z,3.00
2017-11-14T18:53:33.459Z,2.80
2017-11-14T18:56:01.607Z,2.70
2017-11-14T18:58:29.900Z,2.50
2017-11-14T19:00:58.024Z,2.30
2017-11-14T19:03:26.973Z,2.20
2017-11-14T19:05:55.123Z,2.20
2017-11-14T19:08:23.281Z,2.30
2017-11-14T19:10:51.420Z,2.30
2017-11-14T19:13:21.071Z,2.30
2017-11-14T19:15:49.230Z,2.30
2017-11-14T19:18:18.154Z,2.10
2017-11-14T19:20:46.295Z,2.10
2017-11-14T19:23:14.461Z,2.10
2017-11-14T19:25:43.385Z,2.40
2017-11-14T19:28:11.543Z,2.40
2017-11-14T19:30:39.721Z,2.50
2017-11-14T19:33:07.957Z,2.60
2017-11-14T19:35:37.106Z,2.50
2017-11-14T19:38:05.451Z,2.50
2017-11-14T19:40:34.583Z,2.60
2017-11-14T19:43:02.802Z,2.60
2017-11-14T19:45:31.025Z,2.50
2017-11-14T19:47:59.225Z,2.40
2017-11-14T19:50:27.560Z,2.30
2017-11-14T19:52:55.864Z,2.40
2017-11-14T19:55:24.135Z,2.20
2017-11-14T19:57:52.547Z,2.20
2017-11-14T20:00:20.945Z,2.40
2017-11-14T20:02:49.305Z,2.60
2017-11-14T20:05:18.612Z,2.80
2017-11-14T20:07:47.027Z,2.80
2017-11-14T20:10:16.234Z,2.90
2017-11-14T20:12:44.615Z,2.90
2017-11-14T20:15:13.209Z,2.90
2017-11-14T20:17:41.614Z,2.40
2017-11-14T20:20:10.144Z,2.10
2017-11-14T20:22:38.628Z,1.90
2017-11-14T20:25:07.125Z,1.80
2017-11-14T20:27:35.937Z,1.70
2017-11-14T20:30:04.414Z,1.60
2017-11-14T20:32:33.685Z,1.60
2017-11-14T20:35:02.990Z,1.60
2017-11-14T20:37:32.506Z,1.70
2017-11-14T20:40:01.687Z,1.70
2017-11-14T20:42:30.119Z,1.80
2017-11-14T20:44:58.545Z,2.00
2017-11-14T20:47:27.200Z,2.00
2017-11-14T20:49:55.711Z,2.00
2017-11-14T20:52:25.940Z,2.10
2017-11-14T20:54:54.515Z,2.10
2017-11-14T20:57:23.000Z,2.30
2017-11-14T20:59:51.318Z,2.50
2017-11-14T21:02:20.317Z,2.60
2017-11-14T21:04:48.464Z,2.60
2017-11-14T21:07:16.634Z,2.40
2017-11-14T21:09:44.797Z,2.30
2017-11-14T21:12:12.966Z,2.20
2017-11-14T21:14:41.289Z,2.20
2017-11-14T21:17:10.202Z,2.10
2017-11-14T21:19:38.350Z,2.10
2017-11-14T21:22:07.253Z,1.90
2017-11-14T21:24:35.412Z,1.90
2017-11-14T21:27:04.325Z,1.80
2017-11-14T21:29:32.470Z,1.80
2017-11-14T21:32:01.389Z,1.70
2017-11-14T21:34:29.547Z,1.70
2017-11-14T21:36:58.432Z,1.70
2017-11-14T21:39:27.350Z,1.80
2017-11-14T21:41:55.476Z,1.80
2017-11-14T21:44:23.655Z,1.90
2017-11-14T21:46:53.302Z,2.10
2017-11-14T21:49:21.433Z,2.10
2017-11-14T21:51:49.592Z,2.20
2017-11-14T21:54:17.747Z,2.20
2017-11-14T21:56:45.875Z,2.60
2017-11-14T21:59:14.035Z,2.50
2017-11-14T22:01:42.955Z,2.20
2017-11-14T22:04:11.094Z,2.20
2017-11-14T22:06:39.258Z,2.10
2017-11-14T22:09:07.410Z,2.00
2017-11-14T22:11:35.551Z,2.00
2017-11-14T22:14:03.701Z,2.00
2017-11-14T22:16:31.843Z,2.00
2017-11-14T22:18:59.967Z,2.30
2017-11-14T22:21:28.108Z,2.60
2017-11-14T22:23:57.031Z,2.70
2017-11-14T22:26:25.198Z,2.70
2017-11-14T22:28:53.313Z,2.70
2017-11-14T22:31:21.504Z,2.70
2017-11-14T22:33:50.400Z,3.00
2017-11-14T22:36:19.360Z,2.90
2017-11-14T22:38:47.503Z,2.90
2017-11-14T22:41:15.625Z,2.70
2017-11-14T22:43:44.521Z,2.70
2017-11-14T22:46:13.462Z,2.60
2017-11-14T22:48:41.594Z,2.50
2017-11-14T22:51:10.514Z,2.40
2017-11-14T22:53:39.419Z,2.50
2017-11-14T22:56:07.606Z,2.40
2017-11-14T22:58:36.525Z,2.30
2017-11-14T23:01:04.658Z,2.30
2017-11-14T23:03:32.793Z,2.10
2017-11-14T23:06:00.938Z,2.00
2017-11-14T23:08:29.085Z,1.90
2017-11-14T23:10:57.229Z,2.10
2017-11-14T23:13:25.373Z,2.00
2017-11-14T23:15:54.298Z,2.10
2017-11-14T23:18:22.433Z,2.10
2017-11-14T23:20:51.353Z,2.30
2017-11-14T23:23:19.476Z,2.20
2017-11-14T23:25:47.603Z,2.40
2017-11-14T23:28:15.746Z,2.60
2017-11-14T23:30:43.906Z,2.40
2017-11-14T23:33:12.819Z,2.10
2017-11-14T23:35:41.734Z,2.00
2017-11-14T23:38:09.868Z,1.90
2017-11-14T23:40:38.774Z,1.80
2017-11-14T23:43:06.915Z,1.80
2017-11-14T23:45:35.824Z,2.00
2017-11-14T23:48:03.960Z,2.00
2017-11-14T23:50:32.122Z,1.90
2017-11-14T23:53:00.288Z,1.80
2017-11-14T23:55:28.427Z,1.80
2017-11-14T23:57:56.562Z,1.80
